TimeCDT,TemperatureF,Dew PointF,Humidity,Sea Level PressureIn,VisibilityMPH,Wind Direction,Wind SpeedMPH,Gust SpeedMPH,PrecipitationIn,Events,Conditions,WindDirDegrees,DateUTC
12:54 AM,77.0,69.1,76,29.89,10.0,South,6.9,-,N/A,,Overcast,190,2013-06-01 05:54:00
1:29 AM,77.0,68.0,74,29.89,10.0,South,11.5,18.4,N/A,Thunderstorm,Mostly Cloudy,190,2013-06-01 06:29:00
1:44 AM,77.0,68.0,74,29.89,10.0,South,9.2,-,N/A,,Mostly Cloudy,180,2013-06-01 06:44:00
1:54 AM,77.0,68.0,74,29.88,10.0,South,11.5,-,N/A,,Overcast,190,2013-06-01 06:54:00
2:46 AM,66.2,60.8,83,29.94,6.0,NNW,19.6,28.8,0.00,Rain-Thunderstorm,Rain,330,2013-06-01 07:46:00
2:54 AM,64.0,61.0,90,29.95,1.5,NW,18.4,39.1,0.05,Rain-Thunderstorm,Heavy Thunderstorms and Rain,320,2013-06-01 07:54:00
3:13 AM,64.4,60.8,88,29.94,2.0,NNW,9.2,-,0.37,Rain-Thunderstorm,Heavy Thunderstorms and Rain,330,2013-06-01 08:13:00
3:22 AM,64.4,60.8,88,29.94,6.0,NNW,9.2,-,0.39,Rain-Thunderstorm,Thunderstorms and Rain,330,2013-06-01 08:22:00
3:54 AM,64.9,61.0,87,29.91,5.0,NE,5.8,-,0.47,Rain-Thunderstorm,Rain,40,2013-06-01 08:54:00
4:01 AM,64.4,62.6,94,29.91,6.0,ENE,6.9,-,0.00,Rain,Rain,60,2013-06-01 09:01:00
4:45 AM,64.4,60.8,88,29.90,10.0,East,4.6,-,0.05,Rain-Thunderstorm,Light Thunderstorms and Rain,100,2013-06-01 09:45:00
4:54 AM,64.0,62.1,93,29.89,9.0,East,4.6,-,0.06,Rain-Thunderstorm,Rain,100,2013-06-01 09:54:00
5:11 AM,64.4,62.6,94,29.91,10.0,ESE,4.6,-,0.03,Rain-Thunderstorm,Thunderstorms and Rain,120,2013-06-01 10:11:00
5:54 AM,64.9,61.0,87,29.91,7.0,East,8.1,-,0.16,Rain,Rain,100,2013-06-01 10:54:00
6:54 AM,64.0,61.0,90,29.93,5.0,SE,5.8,-,0.16,Rain,Rain,140,2013-06-01 11:54:00
7:03 AM,64.4,62.6,94,29.95,4.0,South,5.8,-,0.03,Rain-Thunderstorm,Rain,180,2013-06-01 12:03:00
7:12 AM,64.4,62.6,94,29.95,4.0,South,8.1,-,0.06,Rain,Heavy Rain,170,2013-06-01 12:12:00
7:54 AM,64.0,61.0,90,29.94,9.0,South,8.1,-,0.20,Rain,Light Rain,170,2013-06-01 12:54:00
8:07 AM,64.4,62.6,94,29.94,8.0,South,9.2,-,0.01,Rain,Rain,170,2013-06-01 13:07:00
8:54 AM,64.9,62.1,90,29.97,5.0,South,6.9,-,0.04,Rain,Light Rain,180,2013-06-01 13:54:00
9:54 AM,66.0,62.1,87,29.98,10.0,SSW,6.9,-,0.03,Rain,Light Rain,200,2013-06-01 14:54:00
10:54 AM,68.0,64.0,87,29.92,10.0,SSE,9.2,-,0.03,Rain,Light Rain,160,2013-06-01 15:54:00
11:37 AM,68.0,64.4,88,29.95,10.0,South,11.5,16.1,0.00,Rain,Light Rain,180,2013-06-01 16:37:00
11:54 AM,66.9,64.0,90,29.94,6.0,South,6.9,-,0.02,Rain,Rain,190,2013-06-01 16:54:00
12:45 PM,68.0,64.4,88,29.94,5.0,South,12.7,-,0.00,Rain,Rain,180,2013-06-01 17:45:00
12:54 PM,68.0,64.0,87,29.92,5.0,South,11.5,-,0.01,Rain,Rain,180,2013-06-01 17:54:00
12:59 PM,68.0,64.4,88,29.91,7.0,SSE,11.5,20.7,0.01,Rain,Rain,160,2013-06-01 17:59:00
1:54 PM,70.0,64.0,81,29.83,10.0,SSE,10.4,-,0.02,Rain,Light Rain,160,2013-06-01 18:54:00
2:54 PM,70.0,63.0,78,29.81,10.0,SSE,12.7,18.4,0.00,,Overcast,150,2013-06-01 19:54:00
3:54 PM,71.1,64.9,81,29.78,10.0,SE,15.0,20.7,0.00,,Mostly Cloudy,140,2013-06-01 20:54:00
4:54 PM,73.0,64.0,73,29.85,10.0,West,16.1,20.7,0.00,,Scattered Clouds,260,2013-06-01 21:54:00
5:54 PM,73.0,64.0,73,29.83,10.0,WSW,9.2,-,N/A,,Scattered Clouds,250,2013-06-01 22:54:00
6:54 PM,72.0,63.0,73,29.83,10.0,SSW,6.9,-,N/A,,Clear,210,2013-06-01 23:54:00
7:54 PM,70.0,63.0,78,29.83,10.0,SSW,9.2,-,N/A,,Clear,210,2013-06-02 00:54:00
8:54 PM,69.1,64.0,84,29.85,10.0,SSW,3.5,-,N/A,,Mostly Cloudy,200,2013-06-02 01:54:00
9:54 PM,69.1,63.0,81,29.87,10.0,SSW,9.2,-,N/A,,Clear,210,2013-06-02 02:54:00
10:54 PM,66.9,63.0,87,29.88,10.0,SSW,8.1,-,N/A,,Clear,210,2013-06-02 03:54:00
11:54 PM,68.0,63.0,84,29.90,10.0,SW,10.4,-,N/A,,Mostly Cloudy,220,2013-06-02 04:54:00